sensor_id;sensor_type;location;lat;lon;timestamp;pressure;altitude;pressure_sealevel;temperature;humidity
54978;BME280;40873;47.522;19.106;2023-02-18T00:01:34;100591.19;;;12.73;82.42
54978;BME280;40873;47.522;19.106;2023-02-18T00:04:01;100583.88;;;12.76;82.55
54978;BME280;40873;47.522;19.106;2023-02-18T00:06:31;100570.13;;;12.84;82.83
54978;BME280;40873;47.522;19.106;2023-02-18T00:08:59;100568.66;;;12.93;82.45
54978;BME280;40873;47.522;19.106;2023-02-18T00:11:30;100566.97;;;12.92;82.97
54978;BME280;40873;47.522;19.106;2023-02-18T00:13:59;100568.38;;;12.97;82.78
54978;BME280;40873;47.522;19.106;2023-02-18T00:16:28;100552.91;;;13.04;82.69
54978;BME280;40873;47.522;19.106;2023-02-18T00:19:04;100554.41;;;13.08;82.42
54978;BME280;40873;47.522;19.106;2023-02-18T00:21:32;100557.38;;;13.03;82.74
54978;BME280;40873;47.522;19.106;2023-02-18T00:23:59;100563.41;;;13.05;83.17
54978;BME280;40873;47.522;19.106;2023-02-18T00:26:27;100548.91;;;13.11;82.88
54978;BME280;40873;47.522;19.106;2023-02-18T00:28:54;100549.63;;;13.13;82.40
54978;BME280;40873;47.522;19.106;2023-02-18T00:31:24;100547.63;;;13.04;83.10
54978;BME280;40873;47.522;19.106;2023-02-18T00:33:51;100566.28;;;13.15;82.51
54978;BME280;40873;47.522;19.106;2023-02-18T00:36:20;100535.59;;;13.25;82.43
54978;BME280;40873;47.522;19.106;2023-02-18T00:38:56;100545.56;;;13.22;82.22
54978;BME280;40873;47.522;19.106;2023-02-18T00:41:25;100544.78;;;13.20;82.43
54978;BME280;40873;47.522;19.106;2023-02-18T00:43:53;100535.44;;;13.14;82.78
54978;BME280;40873;47.522;19.106;2023-02-18T00:46:21;100533.56;;;13.16;82.91
54978;BME280;40873;47.522;19.106;2023-02-18T00:48:48;100541.59;;;13.14;83.08
54978;BME280;40873;47.522;19.106;2023-02-18T00:51:15;100533.13;;;13.09;83.27
54978;BME280;40873;47.522;19.106;2023-02-18T00:53:42;100537.03;;;13.16;82.96
54978;BME280;40873;47.522;19.106;2023-02-18T00:56:10;100538.31;;;13.11;83.09
54978;BME280;40873;47.522;19.106;2023-02-18T00:58:36;100536.09;;;13.17;82.71
54978;BME280;40873;47.522;19.106;2023-02-18T01:01:06;100535.13;;;13.18;82.85
54978;BME280;40873;47.522;19.106;2023-02-18T01:03:34;100528.38;;;13.27;82.49
54978;BME280;40873;47.522;19.106;2023-02-18T01:06:02;100535.81;;;13.22;82.50
54978;BME280;40873;47.522;19.106;2023-02-18T01:08:29;100521.94;;;13.31;81.73
54978;BME280;40873;47.522;19.106;2023-02-18T01:10:57;100515.47;;;13.35;81.95
54978;BME280;40873;47.522;19.106;2023-02-18T01:13:26;100527.53;;;13.39;81.63
54978;BME280;40873;47.522;19.106;2023-02-18T01:15:53;100514.28;;;13.52;80.63
54978;BME280;40873;47.522;19.106;2023-02-18T01:18:21;100524.59;;;13.44;80.96
54978;BME280;40873;47.522;19.106;2023-02-18T01:20:49;100507.50;;;13.48;80.57
54978;BME280;40873;47.522;19.106;2023-02-18T01:23:15;100506.75;;;13.59;79.63
54978;BME280;40873;47.522;19.106;2023-02-18T01:25:43;100532.06;;;13.63;79.59
54978;BME280;40873;47.522;19.106;2023-02-18T01:28:12;100507.16;;;13.65;79.33
54978;BME280;40873;47.522;19.106;2023-02-18T01:30:40;100502.28;;;13.72;78.75
54978;BME280;40873;47.522;19.106;2023-02-18T01:33:08;100500.16;;;13.77;78.24
54978;BME280;40873;47.522;19.106;2023-02-18T01:35:38;100505.66;;;13.74;78.30
54978;BME280;40873;47.522;19.106;2023-02-18T01:38:06;100511.25;;;13.82;78.23
54978;BME280;40873;47.522;19.106;2023-02-18T01:40:33;100492.38;;;13.87;77.50
54978;BME280;40873;47.522;19.106;2023-02-18T01:43:00;100505.13;;;13.82;78.30
54978;BME280;40873;47.522;19.106;2023-02-18T01:48:07;100497.03;;;13.83;78.08
54978;BME280;40873;47.522;19.106;2023-02-18T01:50:39;100492.25;;;13.88;77.62
54978;BME280;40873;47.522;19.106;2023-02-18T01:53:07;100495.47;;;13.81;77.97
54978;BME280;40873;47.522;19.106;2023-02-18T01:55:35;100489.09;;;13.83;77.95
54978;BME280;40873;47.522;19.106;2023-02-18T01:58:03;100490.25;;;13.92;77.07
54978;BME280;40873;47.522;19.106;2023-02-18T02:00:31;100495.44;;;13.93;77.09
54978;BME280;40873;47.522;19.106;2023-02-18T02:02:58;100486.41;;;13.96;76.90
54978;BME280;40873;47.522;19.106;2023-02-18T02:05:29;100478.44;;;13.96;76.74
54978;BME280;40873;47.522;19.106;2023-02-18T02:07:57;100486.41;;;13.96;76.95
54978;BME280;40873;47.522;19.106;2023-02-18T02:10:36;100485.91;;;13.91;77.06
54978;BME280;40873;47.522;19.106;2023-02-18T02:16:13;100476.75;;;13.95;77.01
54978;BME280;40873;47.522;19.106;2023-02-18T02:18:57;100459.56;;;14.01;75.89
54978;BME280;40873;47.522;19.106;2023-02-18T02:27:24;100478.44;;;13.96;76.03
54978;BME280;40873;47.522;19.106;2023-02-18T02:36:16;100462.22;;;14.01;75.28
54978;BME280;40873;47.522;19.106;2023-02-18T02:38:55;100461.13;;;14.03;75.28
54978;BME280;40873;47.522;19.106;2023-02-18T02:44:34;100476.09;;;14.04;75.07
54978;BME280;40873;47.522;19.106;2023-02-18T02:47:10;100470.56;;;14.07;75.06
54978;BME280;40873;47.522;19.106;2023-02-18T02:52:47;100489.81;;;13.98;75.31
54978;BME280;40873;47.522;19.106;2023-02-18T02:55:16;100483.97;;;14.06;74.88
54978;BME280;40873;47.522;19.106;2023-02-18T02:57:47;100477.41;;;13.98;74.98
54978;BME280;40873;47.522;19.106;2023-02-18T03:00:17;100485.44;;;13.97;75.55
54978;BME280;40873;47.522;19.106;2023-02-18T03:02:57;100491.59;;;13.97;75.07
54978;BME280;40873;47.522;19.106;2023-02-18T03:11:12;100496.69;;;14.01;74.83
54978;BME280;40873;47.522;19.106;2023-02-18T03:16:58;100501.75;;;14.04;75.04
54978;BME280;40873;47.522;19.106;2023-02-18T03:19:52;100510.56;;;14.04;74.95
54978;BME280;40873;47.522;19.106;2023-02-18T03:22:28;100511.53;;;14.03;74.96
54978;BME280;40873;47.522;19.106;2023-02-18T03:24:57;100513.56;;;13.99;75.38
54978;BME280;40873;47.522;19.106;2023-02-18T03:27:50;100502.13;;;13.99;75.00
54978;BME280;40873;47.522;19.106;2023-02-18T03:30:34;100518.47;;;13.93;75.19
54978;BME280;40873;47.522;19.106;2023-02-18T03:33:05;100507.22;;;13.89;75.49
54978;BME280;40873;47.522;19.106;2023-02-18T03:35:35;100506.25;;;13.90;75.06
54978;BME280;40873;47.522;19.106;2023-02-18T03:38:15;100517.81;;;13.89;75.23
54978;BME280;40873;47.522;19.106;2023-02-18T03:40:44;100512.63;;;13.88;75.62
54978;BME280;40873;47.522;19.106;2023-02-18T03:43:11;100498.97;;;13.81;75.68
54978;BME280;40873;47.522;19.106;2023-02-18T03:45:38;100507.22;;;13.89;75.60
54978;BME280;40873;47.522;19.106;2023-02-18T03:48:06;100501.81;;;13.91;75.31
54978;BME280;40873;47.522;19.106;2023-02-18T03:50:33;100510.84;;;13.88;75.25
54978;BME280;40873;47.522;19.106;2023-02-18T03:53:00;100522.41;;;13.87;75.30
54978;BME280;40873;47.522;19.106;2023-02-18T03:55:27;100517.75;;;13.91;74.94
54978;BME280;40873;47.522;19.106;2023-02-18T03:57:54;100511.06;;;13.85;75.66
54978;BME280;40873;47.522;19.106;2023-02-18T04:00:21;100503.00;;;13.87;75.77
54978;BME280;40873;47.522;19.106;2023-02-18T04:02:48;100513.28;;;13.91;75.05
54978;BME280;40873;47.522;19.106;2023-02-18T04:05:15;100516.03;;;13.90;75.33
54978;BME280;40873;47.522;19.106;2023-02-18T04:07:42;100514.13;;;13.92;75.43
54978;BME280;40873;47.522;19.106;2023-02-18T04:10:09;100539.16;;;13.88;75.38
54978;BME280;40873;47.522;19.106;2023-02-18T04:12:36;100524.91;;;14.02;74.80
54978;BME280;40873;47.522;19.106;2023-02-18T04:15:04;100512.81;;;13.97;75.33
54978;BME280;40873;47.522;19.106;2023-02-18T04:17:32;100509.25;;;13.86;76.06
54978;BME280;40873;47.522;19.106;2023-02-18T04:19:59;100521.66;;;13.85;75.74
54978;BME280;40873;47.522;19.106;2023-02-18T04:22:26;100529.09;;;13.80;76.04
54978;BME280;40873;47.522;19.106;2023-02-18T04:24:53;100519.88;;;13.86;76.11
54978;BME280;40873;47.522;19.106;2023-02-18T04:27:20;100526.97;;;13.85;76.28
54978;BME280;40873;47.522;19.106;2023-02-18T04:29:47;100523.56;;;13.83;76.48
54978;BME280;40873;47.522;19.106;2023-02-18T04:32:14;100531.53;;;13.83;76.55
54978;BME280;40873;47.522;19.106;2023-02-18T04:34:41;100529.00;;;13.69;77.06
54978;BME280;40873;47.522;19.106;2023-02-18T04:37:08;100519.25;;;13.69;77.62
54978;BME280;40873;47.522;19.106;2023-02-18T04:39:35;100520.97;;;13.58;77.90
54978;BME280;40873;47.522;19.106;2023-02-18T04:42:02;100526.03;;;13.61;78.06
54978;BME280;40873;47.522;19.106;2023-02-18T04:44:35;100547.47;;;13.58;78.01
54978;BME280;40873;47.522;19.106;2023-02-18T04:47:04;100555.44;;;13.58;78.03
54978;BME280;40873;47.522;19.106;2023-02-18T04:49:31;100569.72;;;13.55;78.24
54978;BME280;40873;47.522;19.106;2023-02-18T04:51:58;100555.63;;;13.55;77.47
54978;BME280;40873;47.522;19.106;2023-02-18T04:54:25;100563.06;;;13.50;77.95
54978;BME280;40873;47.522;19.106;2023-02-18T04:56:52;100563.50;;;13.43;77.98
54978;BME280;40873;47.522;19.106;2023-02-18T04:59:19;100574.41;;;13.39;78.49
54978;BME280;40873;47.522;19.106;2023-02-18T05:01:46;100573.53;;;13.38;79.37
54978;BME280;40873;47.522;19.106;2023-02-18T05:04:13;100570.25;;;13.35;79.98
54978;BME280;40873;47.522;19.106;2023-02-18T05:06:40;100599.06;;;13.27;80.83
54978;BME280;40873;47.522;19.106;2023-02-18T05:09:09;100589.59;;;13.10;82.17
54978;BME280;40873;47.522;19.106;2023-02-18T05:11:37;100585.34;;;13.07;83.75
54978;BME280;40873;47.522;19.106;2023-02-18T05:14:04;100593.34;;;12.93;84.35
54978;BME280;40873;47.522;19.106;2023-02-18T05:16:31;100594.81;;;12.84;86.14
54978;BME280;40873;47.522;19.106;2023-02-18T05:18:58;100586.72;;;12.73;88.28
54978;BME280;40873;47.522;19.106;2023-02-18T05:21:25;100592.59;;;12.64;90.09
54978;BME280;40873;47.522;19.106;2023-02-18T05:23:52;100605.09;;;12.62;90.63
54978;BME280;40873;47.522;19.106;2023-02-18T05:26:19;100593.00;;;12.58;90.87
54978;BME280;40873;47.522;19.106;2023-02-18T05:28:46;100601.03;;;12.56;91.83
54978;BME280;40873;47.522;19.106;2023-02-18T05:31:13;100601.16;;;12.55;92.05
54978;BME280;40873;47.522;19.106;2023-02-18T05:33:40;100602.88;;;12.42;93.45
54978;BME280;40873;47.522;19.106;2023-02-18T05:36:07;100604.59;;;12.43;93.34
54978;BME280;40873;47.522;19.106;2023-02-18T05:38:34;100604.97;;;12.37;94.01
54978;BME280;40873;47.522;19.106;2023-02-18T05:41:01;100613.13;;;12.33;94.79
54978;BME280;40873;47.522;19.106;2023-02-18T05:43:28;100609.34;;;12.23;95.52
54978;BME280;40873;47.522;19.106;2023-02-18T05:45:56;100624.47;;;12.21;95.27
54978;BME280;40873;47.522;19.106;2023-02-18T05:48:22;100623.44;;;12.24;95.46
54978;BME280;40873;47.522;19.106;2023-02-18T05:50:49;100631.44;;;12.22;95.26
54978;BME280;40873;47.522;19.106;2023-02-18T05:53:19;100637.69;;;12.21;95.06
54978;BME280;40873;47.522;19.106;2023-02-18T05:55:46;100632.88;;;12.28;95.06
54978;BME280;40873;47.522;19.106;2023-02-18T05:58:13;100639.47;;;12.21;95.56
54978;BME280;40873;47.522;19.106;2023-02-18T06:00:40;100641.28;;;12.20;95.66
54978;BME280;40873;47.522;19.106;2023-02-18T06:03:07;100644.59;;;12.24;94.19
54978;BME280;40873;47.522;19.106;2023-02-18T06:05:35;100638.63;;;12.20;94.41
54978;BME280;40873;47.522;19.106;2023-02-18T06:08:01;100649.13;;;12.22;94.26
54978;BME280;40873;47.522;19.106;2023-02-18T06:10:29;100646.47;;;12.22;93.50
54978;BME280;40873;47.522;19.106;2023-02-18T06:12:55;100655.72;;;12.15;93.94
54978;BME280;40873;47.522;19.106;2023-02-18T06:15:22;100668.59;;;12.21;93.92
54978;BME280;40873;47.522;19.106;2023-02-18T06:17:49;100676.88;;;12.15;94.01
54978;BME280;40873;47.522;19.106;2023-02-18T06:20:17;100674.94;;;12.04;94.20
54978;BME280;40873;47.522;19.106;2023-02-18T06:22:43;100672.94;;;12.07;94.14
54978;BME280;40873;47.522;19.106;2023-02-18T06:25:10;100664.63;;;11.99;94.76
54978;BME280;40873;47.522;19.106;2023-02-18T06:27:37;100671.13;;;12.08;93.56
54978;BME280;40873;47.522;19.106;2023-02-18T06:30:05;100672.19;;;12.05;94.10
54978;BME280;40873;47.522;19.106;2023-02-18T06:32:32;100673.50;;;11.98;94.17
54978;BME280;40873;47.522;19.106;2023-02-18T06:34:59;100671.81;;;11.97;94.62
54978;BME280;40873;47.522;19.106;2023-02-18T06:37:26;100691.31;;;11.95;94.96
54978;BME280;40873;47.522;19.106;2023-02-18T06:39:53;100676.31;;;11.95;95.01
54978;BME280;40873;47.522;19.106;2023-02-18T06:42:20;100677.00;;;11.99;95.26
54978;BME280;40873;47.522;19.106;2023-02-18T06:44:47;100672.75;;;11.96;95.27
54978;BME280;40873;47.522;19.106;2023-02-18T06:47:14;100670.09;;;11.96;95.39
54978;BME280;40873;47.522;19.106;2023-02-18T06:49:41;100660.75;;;12.05;94.66
54978;BME280;40873;47.522;19.106;2023-02-18T06:52:10;100661.59;;;12.05;94.30
54978;BME280;40873;47.522;19.106;2023-02-18T06:54:38;100663.19;;;12.08;94.66
54978;BME280;40873;47.522;19.106;2023-02-18T06:57:04;100669.91;;;12.14;94.49
54978;BME280;40873;47.522;19.106;2023-02-18T06:59:32;100675.41;;;12.11;95.19
54978;BME280;40873;47.522;19.106;2023-02-18T07:01:58;100680.38;;;12.15;95.45
54978;BME280;40873;47.522;19.106;2023-02-18T07:04:26;100683.97;;;12.14;96.04
54978;BME280;40873;47.522;19.106;2023-02-18T07:06:52;100679.84;;;12.24;96.28
54978;BME280;40873;47.522;19.106;2023-02-18T07:09:19;100684.91;;;12.27;96.41
54978;BME280;40873;47.522;19.106;2023-02-18T07:11:46;100685.31;;;12.21;97.35
54978;BME280;40873;47.522;19.106;2023-02-18T07:14:13;100677.09;;;12.12;98.42
54978;BME280;40873;47.522;19.106;2023-02-18T07:16:40;100677.00;;;12.13;98.91
54978;BME280;40873;47.522;19.106;2023-02-18T07:19:08;100696.34;;;12.28;98.18
54978;BME280;40873;47.522;19.106;2023-02-18T07:21:34;100693.44;;;12.18;98.97
54978;BME280;40873;47.522;19.106;2023-02-18T07:24:02;100689.28;;;12.14;99.64
54978;BME280;40873;47.522;19.106;2023-02-18T07:26:28;100698.63;;;12.20;98.73
54978;BME280;40873;47.522;19.106;2023-02-18T07:28:56;100698.41;;;12.23;99.06
54978;BME280;40873;47.522;19.106;2023-02-18T07:31:22;100694.06;;;12.36;97.55
54978;BME280;40873;47.522;19.106;2023-02-18T07:33:52;100698.34;;;12.39;96.87
54978;BME280;40873;47.522;19.106;2023-02-18T07:36:19;100700.53;;;12.32;97.43
54978;BME280;40873;47.522;19.106;2023-02-18T07:38:46;100696.72;;;12.36;96.76
54978;BME280;40873;47.522;19.106;2023-02-18T07:41:19;100691.91;;;12.43;96.05
54978;BME280;40873;47.522;19.106;2023-02-18T07:43:47;100685.66;;;12.44;94.89
54978;BME280;40873;47.522;19.106;2023-02-18T07:46:15;100685.38;;;12.48;94.04
54978;BME280;40873;47.522;19.106;2023-02-18T07:48:42;100688.22;;;12.59;93.52
54978;BME280;40873;47.522;19.106;2023-02-18T07:51:10;100678.47;;;12.60;93.33
54978;BME280;40873;47.522;19.106;2023-02-18T07:53:38;100675.41;;;12.80;92.27
54978;BME280;40873;47.522;19.106;2023-02-18T07:56:05;100674.44;;;12.81;91.81
54978;BME280;40873;47.522;19.106;2023-02-18T07:58:35;100675.00;;;12.72;91.98
54978;BME280;40873;47.522;19.106;2023-02-18T08:01:10;100674.44;;;12.81;91.49
54978;BME280;40873;47.522;19.106;2023-02-18T08:03:41;100674.13;;;12.86;91.10
54978;BME280;40873;47.522;19.106;2023-02-18T08:06:19;100675.00;;;12.86;91.00
54978;BME280;40873;47.522;19.106;2023-02-18T08:08:47;100671.34;;;12.75;91.37
54978;BME280;40873;47.522;19.106;2023-02-18T08:11:13;100678.06;;;12.80;91.40
54978;BME280;40873;47.522;19.106;2023-02-18T08:13:46;100674.44;;;12.81;90.93
54978;BME280;40873;47.522;19.106;2023-02-18T08:16:15;100688.31;;;12.85;91.11
54978;BME280;40873;47.522;19.106;2023-02-18T08:18:43;100688.03;;;12.89;91.08
54978;BME280;40873;47.522;19.106;2023-02-18T08:21:10;100695.25;;;12.87;91.49
54978;BME280;40873;47.522;19.106;2023-02-18T08:23:37;100685.19;;;12.93;92.09
54978;BME280;40873;47.522;19.106;2023-02-18T08:26:04;100684.78;;;12.99;91.07
54978;BME280;40873;47.522;19.106;2023-02-18T08:28:32;100690.09;;;12.99;91.06
54978;BME280;40873;47.522;19.106;2023-02-18T08:30:59;100676.94;;;12.97;90.60
54978;BME280;40873;47.522;19.106;2023-02-18T08:33:27;100682.53;;;12.93;90.85
54978;BME280;40873;47.522;19.106;2023-02-18T08:35:54;100683.09;;;12.98;90.94
54978;BME280;40873;47.522;19.106;2023-02-18T08:38:22;100684.69;;;13.00;90.62
54978;BME280;40873;47.522;19.106;2023-02-18T08:40:50;100684.72;;;13.13;90.37
54978;BME280;40873;47.522;19.106;2023-02-18T08:43:26;100690.97;;;13.12;89.88
54978;BME280;40873;47.522;19.106;2023-02-18T08:45:53;100685.91;;;13.09;90.58
54978;BME280;40873;47.522;19.106;2023-02-18T08:48:20;100684.28;;;13.06;91.59
54978;BME280;40873;47.522;19.106;2023-02-18T08:50:50;100693.59;;;13.26;91.22
54978;BME280;40873;47.522;19.106;2023-02-18T08:53:17;100691.34;;;13.20;89.69
54978;BME280;40873;47.522;19.106;2023-02-18T08:55:44;100690.00;;;13.27;89.52
54978;BME280;40873;47.522;19.106;2023-02-18T08:58:11;100695.97;;;13.31;88.59
54978;BME280;40873;47.522;19.106;2023-02-18T09:00:40;100688.66;;;13.34;88.24
54978;BME280;40873;47.522;19.106;2023-02-18T09:03:11;100692.06;;;13.36;88.12
54978;BME280;40873;47.522;19.106;2023-02-18T09:05:39;100686.00;;;13.34;87.28
54978;BME280;40873;47.522;19.106;2023-02-18T09:08:06;100685.28;;;13.18;87.86
54978;BME280;40873;47.522;19.106;2023-02-18T09:10:33;100680.63;;;13.36;86.70
54978;BME280;40873;47.522;19.106;2023-02-18T09:13:00;100687.41;;;13.40;86.85
54978;BME280;40873;47.522;19.106;2023-02-18T09:15:27;100678.81;;;13.36;87.56
54978;BME280;40873;47.522;19.106;2023-02-18T09:17:54;100686.53;;;13.39;86.92
54978;BME280;40873;47.522;19.106;2023-02-18T09:20:24;100677.63;;;13.40;86.67
54978;BME280;40873;47.522;19.106;2023-02-18T09:22:51;100676.94;;;13.51;85.15
54978;BME280;40873;47.522;19.106;2023-02-18T09:25:18;100665.19;;;13.68;84.34
54978;BME280;40873;47.522;19.106;2023-02-18T09:27:45;100654.69;;;13.66;84.23
54978;BME280;40873;47.522;19.106;2023-02-18T09:30:14;100662.09;;;13.61;84.63
54978;BME280;40873;47.522;19.106;2023-02-18T09:32:42;100664.00;;;13.59;84.69
54978;BME280;40873;47.522;19.106;2023-02-18T09:35:08;100648.81;;;13.49;85.88
54978;BME280;40873;47.522;19.106;2023-02-18T09:37:36;100679.69;;;13.50;86.04
54978;BME280;40873;47.522;19.106;2023-02-18T09:40:04;100662.41;;;13.44;86.96
54978;BME280;40873;47.522;19.106;2023-02-18T09:42:33;100666.44;;;13.50;86.13
54978;BME280;40873;47.522;19.106;2023-02-18T09:45:04;100660.69;;;13.56;85.94
54978;BME280;40873;47.522;19.106;2023-02-18T09:47:38;100662.94;;;13.62;85.99
54978;BME280;40873;47.522;19.106;2023-02-18T09:50:20;100656.81;;;13.87;85.34
54978;BME280;40873;47.522;19.106;2023-02-18T09:52:48;100666.88;;;13.82;84.61
54978;BME280;40873;47.522;19.106;2023-02-18T09:55:20;100673.78;;;13.71;84.46
54978;BME280;40873;47.522;19.106;2023-02-18T09:57:57;100674.41;;;13.75;84.90
54978;BME280;40873;47.522;19.106;2023-02-18T10:00:40;100672.19;;;13.94;83.91
54978;BME280;40873;47.522;19.106;2023-02-18T10:03:14;100667.97;;;14.05;83.29
54978;BME280;40873;47.522;19.106;2023-02-18T10:05:57;100670.19;;;13.98;84.47
54978;BME280;40873;47.522;19.106;2023-02-18T10:08:31;100675.16;;;14.03;82.73
54978;BME280;40873;47.522;19.106;2023-02-18T10:11:00;100677.94;;;14.14;82.63
54978;BME280;40873;47.522;19.106;2023-02-18T10:13:30;100667.31;;;14.01;83.52
54978;BME280;40873;47.522;19.106;2023-02-18T10:15:57;100665.63;;;14.13;83.30
54978;BME280;40873;47.522;19.106;2023-02-18T10:18:28;100660.50;;;14.22;81.20
54978;BME280;40873;47.522;19.106;2023-02-18T10:21:15;100659.78;;;14.20;81.04
54978;BME280;40873;47.522;19.106;2023-02-18T10:26:20;100663.09;;;13.98;82.15
54978;BME280;40873;47.522;19.106;2023-02-18T10:28:47;100660.97;;;13.91;82.03
54978;BME280;40873;47.522;19.106;2023-02-18T10:31:19;100680.78;;;13.85;80.79
54978;BME280;40873;47.522;19.106;2023-02-18T10:36:44;100662.75;;;13.78;81.00
54978;BME280;40873;47.522;19.106;2023-02-18T10:39:33;100660.19;;;13.89;80.21
54978;BME280;40873;47.522;19.106;2023-02-18T10:52:58;100638.06;;;14.39;80.69
54978;BME280;40873;47.522;19.106;2023-02-18T10:55:42;100632.38;;;14.33;82.60
54978;BME280;40873;47.522;19.106;2023-02-18T10:58:32;100633.03;;;14.11;84.58
54978;BME280;40873;47.522;19.106;2023-02-18T11:01:03;100644.47;;;14.11;85.86
54978;BME280;40873;47.522;19.106;2023-02-18T11:06:32;100641.88;;;13.98;85.82
54978;BME280;40873;47.522;19.106;2023-02-18T11:09:01;100641.75;;;13.87;87.31
54978;BME280;40873;47.522;19.106;2023-02-18T11:11:35;100642.81;;;13.85;87.62
54978;BME280;40873;47.522;19.106;2023-02-18T11:14:05;100627.44;;;13.77;87.21
54978;BME280;40873;47.522;19.106;2023-02-18T11:16:45;100619.44;;;14.03;85.77
54978;BME280;40873;47.522;19.106;2023-02-18T11:19:36;100613.59;;;14.23;84.11
54978;BME280;40873;47.522;19.106;2023-02-18T11:22:29;100614.50;;;13.98;84.67
54978;BME280;40873;47.522;19.106;2023-02-18T11:24:55;100611.03;;;14.34;83.21
54978;BME280;40873;47.522;19.106;2023-02-18T11:29:58;100598.88;;;14.56;82.40
54978;BME280;40873;47.522;19.106;2023-02-18T11:32:27;100593.06;;;14.74;81.35
54978;BME280;40873;47.522;19.106;2023-02-18T11:34:54;100588.59;;;14.75;81.35
54978;BME280;40873;47.522;19.106;2023-02-18T11:37:22;100584.09;;;14.99;80.53
54978;BME280;40873;47.522;19.106;2023-02-18T11:39:52;100591.88;;;15.02;80.65
54978;BME280;40873;47.522;19.106;2023-02-18T11:42:22;100579.56;;;14.77;81.58
54978;BME280;40873;47.522;19.106;2023-02-18T11:44:56;100581.50;;;14.87;82.35
54978;BME280;40873;47.522;19.106;2023-02-18T11:47:31;100573.06;;;14.82;82.16
54978;BME280;40873;47.522;19.106;2023-02-18T11:52:39;100563.22;;;14.71;82.77
54978;BME280;40873;47.522;19.106;2023-02-18T11:55:22;100565.28;;;14.67;83.35
54978;BME280;40873;47.522;19.106;2023-02-18T11:58:00;100564.66;;;15.34;80.76
54978;BME280;40873;47.522;19.106;2023-02-18T12:00:41;100544.28;;;16.02;77.83
54978;BME280;40873;47.522;19.106;2023-02-18T12:06:01;100535.59;;;16.86;73.89
54978;BME280;40873;47.522;19.106;2023-02-18T12:08:37;100524.28;;;16.94;74.97
54978;BME280;40873;47.522;19.106;2023-02-18T12:11:11;100518.91;;;16.84;74.13
54978;BME280;40873;47.522;19.106;2023-02-18T12:13:50;100526.09;;;16.18;73.79
54978;BME280;40873;47.522;19.106;2023-02-18T12:19:37;100505.22;;;15.91;76.21
54978;BME280;40873;47.522;19.106;2023-02-18T12:22:24;100507.38;;;15.41;77.45
54978;BME280;40873;47.522;19.106;2023-02-18T12:36:23;100483.69;;;15.49;75.33
54978;BME280;40873;47.522;19.106;2023-02-18T12:38:59;100478.84;;;15.43;76.12
54978;BME280;40873;47.522;19.106;2023-02-18T12:52:14;100475.84;;;15.59;69.51
54978;BME280;40873;47.522;19.106;2023-02-18T13:10:44;100434.84;;;15.95;66.68
54978;BME280;40873;47.522;19.106;2023-02-18T13:13:20;100426.00;;;15.95;66.19
54978;BME280;40873;47.522;19.106;2023-02-18T13:18:27;100415.44;;;16.04;65.33
54978;BME280;40873;47.522;19.106;2023-02-18T13:20:58;100418.75;;;15.97;65.97
54978;BME280;40873;47.522;19.106;2023-02-18T13:23:34;100423.06;;;16.09;66.16
54978;BME280;40873;47.522;19.106;2023-02-18T13:26:05;100430.06;;;16.10;65.21
54978;BME280;40873;47.522;19.106;2023-02-18T13:28:46;100403.81;;;16.05;65.41
54978;BME280;40873;47.522;19.106;2023-02-18T13:31:21;100416.63;;;16.11;65.80
54978;BME280;40873;47.522;19.106;2023-02-18T13:34:00;100402.34;;;16.12;65.14
54978;BME280;40873;47.522;19.106;2023-02-18T13:36:56;100409.28;;;16.36;64.77
54978;BME280;40873;47.522;19.106;2023-02-18T13:39:25;100403.63;;;16.29;65.14
54978;BME280;40873;47.522;19.106;2023-02-18T13:42:51;100391.09;;;16.41;64.18
54978;BME280;40873;47.522;19.106;2023-02-18T13:47:43;100395.31;;;16.23;64.57
54978;BME280;40873;47.522;19.106;2023-02-18T13:52:40;100381.84;;;16.56;64.12
54978;BME280;40873;47.522;19.106;2023-02-18T13:55:17;100368.84;;;16.63;63.64
54978;BME280;40873;47.522;19.106;2023-02-18T13:57:48;100368.69;;;16.64;63.23
54978;BME280;40873;47.522;19.106;2023-02-18T14:00:24;100369.16;;;16.49;63.97
54978;BME280;40873;47.522;19.106;2023-02-18T14:03:04;100358.84;;;16.55;64.11
54978;BME280;40873;47.522;19.106;2023-02-18T14:05:45;100370.19;;;16.36;64.02
54978;BME280;40873;47.522;19.106;2023-02-18T14:08:15;100357.44;;;16.19;64.56
54978;BME280;40873;47.522;19.106;2023-02-18T14:14:12;100348.00;;;15.94;66.93
54978;BME280;40873;47.522;19.106;2023-02-18T14:19:40;100344.31;;;15.74;69.56
54978;BME280;40873;47.522;19.106;2023-02-18T14:27:35;100316.66;;;15.54;69.61
54978;BME280;40873;47.522;19.106;2023-02-18T14:30:07;100324.28;;;15.59;69.66
54978;BME280;40873;47.522;19.106;2023-02-18T14:32:43;100324.75;;;15.64;69.69
54978;BME280;40873;47.522;19.106;2023-02-18T14:35:26;100317.47;;;15.77;69.78
54978;BME280;40873;47.522;19.106;2023-02-18T14:50:09;100305.03;;;15.99;69.25
54978;BME280;40873;47.522;19.106;2023-02-18T14:52:36;100291.50;;;16.23;69.25
54978;BME280;40873;47.522;19.106;2023-02-18T14:55:06;100290.66;;;16.22;68.56
54978;BME280;40873;47.522;19.106;2023-02-18T14:57:45;100288.31;;;16.08;68.82
54978;BME280;40873;47.522;19.106;2023-02-18T15:00:16;100281.56;;;16.04;69.47
54978;BME280;40873;47.522;19.106;2023-02-18T15:02:47;100283.63;;;16.00;69.46
54978;BME280;40873;47.522;19.106;2023-02-18T15:05:21;100281.28;;;15.86;69.99
54978;BME280;40873;47.522;19.106;2023-02-18T15:07:55;100282.16;;;15.75;71.13
54978;BME280;40873;47.522;19.106;2023-02-18T15:13:08;100265.63;;;15.60;71.52